Terminal Aerodrome Forecast
Issued by NWS

Home | Current Version | Previous Version | Text Only | Print | Product List | Glossary On
Versions: 1 2 3 4 5 6 7 8 9 10 11 12 13 14
203
FTUS45 KVEF 292320
TAFBIH
TAF
KBIH 292320Z 3000/3024 16010G18KT P6SM VCTS SCT100CB BKN250
     FM300400 31008KT P6SM BKN250
     FM301900 17010G18KT P6SM SCT120 SCT250=

USA.gov is the U.S. government's official web portal to all federal, state and local government web resources and services.